sensor_id;sensor_type;location;lat;lon;timestamp;P1;durP1;ratioP1;P2;durP2;ratioP2
57561;SDS011;43397;51.530;5.974;2022-09-09T00:00:12;4.90;;;1.70;;
57561;SDS011;43397;51.530;5.974;2022-09-09T00:02:39;3.88;;;1.80;;
57561;SDS011;43397;51.530;5.974;2022-09-09T00:05:14;4.53;;;2.10;;
57561;SDS011;43397;51.530;5.974;2022-09-09T00:07:47;4.80;;;1.92;;
57561;SDS011;43397;51.530;5.974;2022-09-09T00:10:18;6.63;;;2.30;;
57561;SDS011;43397;51.530;5.974;2022-09-09T00:12:54;4.55;;;2.28;;
57561;SDS011;43397;51.530;5.974;2022-09-09T00:15:25;4.93;;;2.03;;
57561;SDS011;43397;51.530;5.974;2022-09-09T00:17:57;5.15;;;2.47;;
57561;SDS011;43397;51.530;5.974;2022-09-09T00:20:29;4.50;;;2.20;;
57561;SDS011;43397;51.530;5.974;2022-09-09T00:23:04;3.90;;;2.03;;
57561;SDS011;43397;51.530;5.974;2022-09-09T00:25:37;3.38;;;1.98;;
57561;SDS011;43397;51.530;5.974;2022-09-09T00:28:10;4.78;;;2.20;;
57561;SDS011;43397;51.530;5.974;2022-09-09T00:30:42;5.60;;;2.50;;
57561;SDS011;43397;51.530;5.974;2022-09-09T00:33:10;5.30;;;2.40;;
57561;SDS011;43397;51.530;5.974;2022-09-09T00:35:38;5.10;;;2.80;;
57561;SDS011;43397;51.530;5.974;2022-09-09T00:38:10;5.97;;;2.47;;
57561;SDS011;43397;51.530;5.974;2022-09-09T00:40:39;4.47;;;2.22;;
57561;SDS011;43397;51.530;5.974;2022-09-09T00:43:18;5.85;;;2.67;;
57561;SDS011;43397;51.530;5.974;2022-09-09T00:45:59;6.45;;;2.50;;
57561;SDS011;43397;51.530;5.974;2022-09-09T00:48:41;4.93;;;2.45;;
57561;SDS011;43397;51.530;5.974;2022-09-09T00:51:14;5.40;;;2.58;;
57561;SDS011;43397;51.530;5.974;2022-09-09T00:53:54;6.40;;;2.42;;
57561;SDS011;43397;51.530;5.974;2022-09-09T00:56:34;4.82;;;2.38;;
57561;SDS011;43397;51.530;5.974;2022-09-09T00:59:07;4.53;;;2.05;;
57561;SDS011;43397;51.530;5.974;2022-09-09T01:01:45;4.78;;;2.10;;
57561;SDS011;43397;51.530;5.974;2022-09-09T01:04:12;4.18;;;2.00;;
57561;SDS011;43397;51.530;5.974;2022-09-09T01:06:41;4.78;;;2.67;;
57561;SDS011;43397;51.530;5.974;2022-09-09T01:09:13;5.38;;;2.35;;
57561;SDS011;43397;51.530;5.974;2022-09-09T01:11:50;3.95;;;1.92;;
57561;SDS011;43397;51.530;5.974;2022-09-09T01:14:38;3.70;;;2.00;;
57561;SDS011;43397;51.530;5.974;2022-09-09T01:17:09;4.75;;;2.17;;
57561;SDS011;43397;51.530;5.974;2022-09-09T01:19:41;5.07;;;2.28;;
57561;SDS011;43397;51.530;5.974;2022-09-09T01:22:18;4.15;;;1.90;;
57561;SDS011;43397;51.530;5.974;2022-09-09T01:25:07;4.30;;;1.92;;
57561;SDS011;43397;51.530;5.974;2022-09-09T01:27:45;5.40;;;2.38;;
57561;SDS011;43397;51.530;5.974;2022-09-09T01:32:42;4.70;;;2.13;;
57561;SDS011;43397;51.530;5.974;2022-09-09T01:35:11;5.25;;;2.20;;
57561;SDS011;43397;51.530;5.974;2022-09-09T01:37:45;6.65;;;2.40;;
57561;SDS011;43397;51.530;5.974;2022-09-09T01:40:11;6.60;;;2.63;;
57561;SDS011;43397;51.530;5.974;2022-09-09T01:42:37;5.05;;;2.35;;
57561;SDS011;43397;51.530;5.974;2022-09-09T01:45:05;4.50;;;2.30;;
57561;SDS011;43397;51.530;5.974;2022-09-09T01:47:31;5.18;;;2.17;;
57561;SDS011;43397;51.530;5.974;2022-09-09T01:49:57;5.35;;;2.72;;
57561;SDS011;43397;51.530;5.974;2022-09-09T01:52:24;6.15;;;2.45;;
57561;SDS011;43397;51.530;5.974;2022-09-09T01:54:50;5.45;;;2.50;;
57561;SDS011;43397;51.530;5.974;2022-09-09T01:57:18;7.72;;;2.78;;
57561;SDS011;43397;51.530;5.974;2022-09-09T01:59:50;5.65;;;2.88;;
57561;SDS011;43397;51.530;5.974;2022-09-09T02:02:29;5.90;;;2.70;;
57561;SDS011;43397;51.530;5.974;2022-09-09T02:05:00;5.43;;;2.60;;
57561;SDS011;43397;51.530;5.974;2022-09-09T02:07:37;6.68;;;2.92;;
57561;SDS011;43397;51.530;5.974;2022-09-09T02:10:07;8.77;;;3.60;;
57561;SDS011;43397;51.530;5.974;2022-09-09T02:12:35;4.25;;;2.53;;
57561;SDS011;43397;51.530;5.974;2022-09-09T02:15:05;5.85;;;2.55;;
57561;SDS011;43397;51.530;5.974;2022-09-09T02:17:38;6.15;;;3.00;;
57561;SDS011;43397;51.530;5.974;2022-09-09T02:20:07;5.05;;;3.05;;
57561;SDS011;43397;51.530;5.974;2022-09-09T02:22:37;7.15;;;2.90;;
57561;SDS011;43397;51.530;5.974;2022-09-09T02:25:05;7.88;;;2.72;;
57561;SDS011;43397;51.530;5.974;2022-09-09T02:29:59;8.18;;;3.22;;
57561;SDS011;43397;51.530;5.974;2022-09-09T02:32:27;8.38;;;3.33;;
57561;SDS011;43397;51.530;5.974;2022-09-09T02:34:57;6.80;;;3.72;;
57561;SDS011;43397;51.530;5.974;2022-09-09T02:37:28;6.10;;;2.90;;
57561;SDS011;43397;51.530;5.974;2022-09-09T02:39:58;6.75;;;3.50;;
57561;SDS011;43397;51.530;5.974;2022-09-09T02:42:24;8.48;;;3.28;;
57561;SDS011;43397;51.530;5.974;2022-09-09T02:44:50;6.40;;;3.45;;
57561;SDS011;43397;51.530;5.974;2022-09-09T02:47:19;9.02;;;4.13;;
57561;SDS011;43397;51.530;5.974;2022-09-09T02:50:03;8.43;;;3.97;;
57561;SDS011;43397;51.530;5.974;2022-09-09T02:52:38;7.40;;;3.80;;
57561;SDS011;43397;51.530;5.974;2022-09-09T02:55:15;5.68;;;3.10;;
57561;SDS011;43397;51.530;5.974;2022-09-09T02:57:45;6.43;;;3.55;;
57561;SDS011;43397;51.530;5.974;2022-09-09T03:00:13;7.75;;;4.03;;
57561;SDS011;43397;51.530;5.974;2022-09-09T03:02:39;8.25;;;3.55;;
57561;SDS011;43397;51.530;5.974;2022-09-09T03:05:07;7.93;;;3.78;;
57561;SDS011;43397;51.530;5.974;2022-09-09T03:07:33;7.57;;;3.63;;
57561;SDS011;43397;51.530;5.974;2022-09-09T03:09:59;10.07;;;4.35;;
57561;SDS011;43397;51.530;5.974;2022-09-09T03:12:25;6.88;;;3.33;;
57561;SDS011;43397;51.530;5.974;2022-09-09T03:14:50;7.65;;;3.47;;
57561;SDS011;43397;51.530;5.974;2022-09-09T03:17:16;7.20;;;3.20;;
57561;SDS011;43397;51.530;5.974;2022-09-09T03:19:42;7.90;;;3.33;;
57561;SDS011;43397;51.530;5.974;2022-09-09T03:22:10;7.25;;;3.90;;
57561;SDS011;43397;51.530;5.974;2022-09-09T03:24:36;6.32;;;3.05;;
57561;SDS011;43397;51.530;5.974;2022-09-09T03:27:02;7.47;;;3.60;;
57561;SDS011;43397;51.530;5.974;2022-09-09T03:29:28;8.85;;;3.88;;
57561;SDS011;43397;51.530;5.974;2022-09-09T03:31:54;7.70;;;4.22;;
57561;SDS011;43397;51.530;5.974;2022-09-09T03:34:19;6.35;;;2.22;;
57561;SDS011;43397;51.530;5.974;2022-09-09T03:36:45;8.05;;;3.15;;
57561;SDS011;43397;51.530;5.974;2022-09-09T03:39:12;7.70;;;2.78;;
57561;SDS011;43397;51.530;5.974;2022-09-09T03:41:38;6.68;;;3.42;;
57561;SDS011;43397;51.530;5.974;2022-09-09T03:44:04;9.15;;;3.58;;
57561;SDS011;43397;51.530;5.974;2022-09-09T03:46:29;7.93;;;3.47;;
57561;SDS011;43397;51.530;5.974;2022-09-09T03:48:55;7.63;;;3.60;;
57561;SDS011;43397;51.530;5.974;2022-09-09T03:51:21;9.38;;;4.03;;
57561;SDS011;43397;51.530;5.974;2022-09-09T03:53:47;6.80;;;3.35;;
57561;SDS011;43397;51.530;5.974;2022-09-09T03:56:14;7.70;;;3.42;;
57561;SDS011;43397;51.530;5.974;2022-09-09T03:58:40;9.20;;;3.83;;
57561;SDS011;43397;51.530;5.974;2022-09-09T04:01:08;8.85;;;3.85;;
57561;SDS011;43397;51.530;5.974;2022-09-09T04:06:01;6.60;;;3.47;;
57561;SDS011;43397;51.530;5.974;2022-09-09T04:08:29;7.82;;;3.97;;
57561;SDS011;43397;51.530;5.974;2022-09-09T04:10:55;9.65;;;3.78;;
57561;SDS011;43397;51.530;5.974;2022-09-09T04:13:22;8.90;;;3.90;;
57561;SDS011;43397;51.530;5.974;2022-09-09T04:15:53;12.07;;;3.60;;
57561;SDS011;43397;51.530;5.974;2022-09-09T04:18:20;8.30;;;3.65;;
57561;SDS011;43397;51.530;5.974;2022-09-09T04:20:46;7.18;;;3.15;;
57561;SDS011;43397;51.530;5.974;2022-09-09T04:23:12;8.30;;;3.75;;
57561;SDS011;43397;51.530;5.974;2022-09-09T04:25:42;7.07;;;3.15;;
57561;SDS011;43397;51.530;5.974;2022-09-09T04:28:09;7.05;;;3.20;;
57561;SDS011;43397;51.530;5.974;2022-09-09T04:30:36;6.88;;;3.25;;
57561;SDS011;43397;51.530;5.974;2022-09-09T04:33:02;7.82;;;3.08;;
57561;SDS011;43397;51.530;5.974;2022-09-09T04:35:28;9.38;;;3.65;;
57561;SDS011;43397;51.530;5.974;2022-09-09T04:37:53;6.35;;;3.03;;
57561;SDS011;43397;51.530;5.974;2022-09-09T04:40:19;6.10;;;2.85;;
57561;SDS011;43397;51.530;5.974;2022-09-09T04:42:45;6.85;;;2.88;;
57561;SDS011;43397;51.530;5.974;2022-09-09T04:45:11;7.88;;;3.20;;
57561;SDS011;43397;51.530;5.974;2022-09-09T04:47:38;7.75;;;2.70;;
57561;SDS011;43397;51.530;5.974;2022-09-09T04:50:04;8.38;;;3.10;;
57561;SDS011;43397;51.530;5.974;2022-09-09T04:52:30;10.95;;;3.00;;
57561;SDS011;43397;51.530;5.974;2022-09-09T04:54:56;6.65;;;2.53;;
57561;SDS011;43397;51.530;5.974;2022-09-09T04:57:22;6.82;;;2.83;;
57561;SDS011;43397;51.530;5.974;2022-09-09T04:59:48;9.18;;;2.90;;
57561;SDS011;43397;51.530;5.974;2022-09-09T05:02:14;8.32;;;3.00;;
57561;SDS011;43397;51.530;5.974;2022-09-09T05:04:41;5.78;;;2.47;;
57561;SDS011;43397;51.530;5.974;2022-09-09T05:07:07;8.13;;;3.47;;
57561;SDS011;43397;51.530;5.974;2022-09-09T05:09:33;8.68;;;2.60;;
57561;SDS011;43397;51.530;5.974;2022-09-09T05:11:59;8.43;;;2.85;;
57561;SDS011;43397;51.530;5.974;2022-09-09T05:14:25;9.40;;;2.70;;
57561;SDS011;43397;51.530;5.974;2022-09-09T05:16:51;11.38;;;2.80;;
57561;SDS011;43397;51.530;5.974;2022-09-09T05:19:16;8.65;;;2.63;;
57561;SDS011;43397;51.530;5.974;2022-09-09T05:21:43;7.80;;;2.50;;
57561;SDS011;43397;51.530;5.974;2022-09-09T05:24:10;4.95;;;2.30;;
57561;SDS011;43397;51.530;5.974;2022-09-09T05:26:35;7.00;;;2.40;;
57561;SDS011;43397;51.530;5.974;2022-09-09T05:29:01;8.15;;;2.83;;
57561;SDS011;43397;51.530;5.974;2022-09-09T05:31:29;5.20;;;2.58;;
57561;SDS011;43397;51.530;5.974;2022-09-09T05:33:55;8.95;;;3.13;;
57561;SDS011;43397;51.530;5.974;2022-09-09T05:36:22;8.30;;;2.70;;
57561;SDS011;43397;51.530;5.974;2022-09-09T05:38:49;6.47;;;2.72;;
57561;SDS011;43397;51.530;5.974;2022-09-09T05:41:15;6.95;;;2.45;;
57561;SDS011;43397;51.530;5.974;2022-09-09T05:43:42;8.80;;;2.58;;
57561;SDS011;43397;51.530;5.974;2022-09-09T05:46:09;7.22;;;2.80;;
57561;SDS011;43397;51.530;5.974;2022-09-09T05:48:36;7.22;;;2.60;;
57561;SDS011;43397;51.530;5.974;2022-09-09T05:51:04;4.57;;;2.22;;
57561;SDS011;43397;51.530;5.974;2022-09-09T05:53:32;7.78;;;2.50;;
57561;SDS011;43397;51.530;5.974;2022-09-09T05:56:00;6.25;;;2.60;;
57561;SDS011;43397;51.530;5.974;2022-09-09T05:58:27;7.82;;;2.67;;
57561;SDS011;43397;51.530;5.974;2022-09-09T06:00:52;7.80;;;2.33;;
57561;SDS011;43397;51.530;5.974;2022-09-09T06:03:25;9.50;;;2.67;;
57561;SDS011;43397;51.530;5.974;2022-09-09T06:05:56;7.70;;;2.65;;
57561;SDS011;43397;51.530;5.974;2022-09-09T06:08:23;9.45;;;3.05;;
57561;SDS011;43397;51.530;5.974;2022-09-09T06:10:48;6.57;;;2.72;;
57561;SDS011;43397;51.530;5.974;2022-09-09T06:13:15;10.05;;;2.97;;
57561;SDS011;43397;51.530;5.974;2022-09-09T06:15:48;9.00;;;3.55;;
57561;SDS011;43397;51.530;5.974;2022-09-09T06:18:15;9.27;;;3.25;;
57561;SDS011;43397;51.530;5.974;2022-09-09T06:20:40;8.60;;;2.95;;
57561;SDS011;43397;51.530;5.974;2022-09-09T06:23:06;8.68;;;2.92;;
57561;SDS011;43397;51.530;5.974;2022-09-09T06:25:32;6.97;;;2.72;;
57561;SDS011;43397;51.530;5.974;2022-09-09T06:27:58;8.55;;;3.08;;
57561;SDS011;43397;51.530;5.974;2022-09-09T06:30:25;6.10;;;2.80;;
57561;SDS011;43397;51.530;5.974;2022-09-09T06:32:51;7.07;;;3.05;;
57561;SDS011;43397;51.530;5.974;2022-09-09T06:35:17;8.43;;;2.53;;
57561;SDS011;43397;51.530;5.974;2022-09-09T06:37:44;5.85;;;2.63;;
57561;SDS011;43397;51.530;5.974;2022-09-09T06:40:10;9.13;;;2.80;;
57561;SDS011;43397;51.530;5.974;2022-09-09T06:42:36;9.02;;;2.47;;
57561;SDS011;43397;51.530;5.974;2022-09-09T06:45:02;7.30;;;2.47;;
57561;SDS011;43397;51.530;5.974;2022-09-09T06:47:29;9.07;;;2.75;;
57561;SDS011;43397;51.530;5.974;2022-09-09T06:49:55;8.13;;;2.63;;
57561;SDS011;43397;51.530;5.974;2022-09-09T06:52:21;9.70;;;3.08;;
57561;SDS011;43397;51.530;5.974;2022-09-09T06:54:46;7.13;;;2.75;;
57561;SDS011;43397;51.530;5.974;2022-09-09T06:57:12;7.15;;;2.83;;
57561;SDS011;43397;51.530;5.974;2022-09-09T06:59:38;8.10;;;2.80;;
57561;SDS011;43397;51.530;5.974;2022-09-09T07:02:04;10.05;;;2.80;;
57561;SDS011;43397;51.530;5.974;2022-09-09T07:04:31;10.52;;;3.17;;
57561;SDS011;43397;51.530;5.974;2022-09-09T07:06:57;6.40;;;2.40;;
57561;SDS011;43397;51.530;5.974;2022-09-09T07:09:22;12.48;;;3.30;;
57561;SDS011;43397;51.530;5.974;2022-09-09T07:11:49;8.15;;;2.78;;
57561;SDS011;43397;51.530;5.974;2022-09-09T07:14:16;6.18;;;2.22;;
57561;SDS011;43397;51.530;5.974;2022-09-09T07:16:42;7.15;;;2.70;;
57561;SDS011;43397;51.530;5.974;2022-09-09T07:19:08;6.53;;;2.28;;
57561;SDS011;43397;51.530;5.974;2022-09-09T07:21:37;10.07;;;2.83;;
57561;SDS011;43397;51.530;5.974;2022-09-09T07:24:03;7.45;;;2.90;;
57561;SDS011;43397;51.530;5.974;2022-09-09T07:26:30;7.35;;;2.83;;
57561;SDS011;43397;51.530;5.974;2022-09-09T07:28:56;7.80;;;2.70;;
57561;SDS011;43397;51.530;5.974;2022-09-09T07:31:22;6.97;;;2.40;;
57561;SDS011;43397;51.530;5.974;2022-09-09T07:33:49;11.40;;;2.60;;
57561;SDS011;43397;51.530;5.974;2022-09-09T07:36:16;9.07;;;2.85;;
57561;SDS011;43397;51.530;5.974;2022-09-09T07:38:45;6.88;;;2.58;;
57561;SDS011;43397;51.530;5.974;2022-09-09T07:41:12;9.50;;;2.47;;
57561;SDS011;43397;51.530;5.974;2022-09-09T07:43:40;10.07;;;3.58;;
57561;SDS011;43397;51.530;5.974;2022-09-09T07:46:07;6.53;;;2.17;;
57561;SDS011;43397;51.530;5.974;2022-09-09T07:48:34;10.18;;;2.88;;
57561;SDS011;43397;51.530;5.974;2022-09-09T07:51:05;7.05;;;2.38;;
57561;SDS011;43397;51.530;5.974;2022-09-09T07:53:33;10.40;;;2.58;;
57561;SDS011;43397;51.530;5.974;2022-09-09T07:56:03;8.13;;;2.47;;
57561;SDS011;43397;51.530;5.974;2022-09-09T07:58:30;6.10;;;2.17;;
57561;SDS011;43397;51.530;5.974;2022-09-09T08:00:56;6.05;;;1.95;;
57561;SDS011;43397;51.530;5.974;2022-09-09T08:03:22;9.77;;;2.10;;
57561;SDS011;43397;51.530;5.974;2022-09-09T08:05:48;8.75;;;1.85;;
57561;SDS011;43397;51.530;5.974;2022-09-09T08:08:13;8.02;;;2.10;;
57561;SDS011;43397;51.530;5.974;2022-09-09T08:10:39;7.22;;;1.92;;
57561;SDS011;43397;51.530;5.974;2022-09-09T08:13:06;8.10;;;2.08;;
57561;SDS011;43397;51.530;5.974;2022-09-09T08:15:33;6.10;;;1.87;;
57561;SDS011;43397;51.530;5.974;2022-09-09T08:17:59;11.25;;;2.03;;
57561;SDS011;43397;51.530;5.974;2022-09-09T08:20:25;5.15;;;1.88;;
57561;SDS011;43397;51.530;5.974;2022-09-09T08:22:51;7.07;;;2.20;;
57561;SDS011;43397;51.530;5.974;2022-09-09T08:25:17;5.55;;;1.92;;
57561;SDS011;43397;51.530;5.974;2022-09-09T08:27:43;7.53;;;1.80;;
57561;SDS011;43397;51.530;5.974;2022-09-09T08:30:11;5.63;;;1.95;;
57561;SDS011;43397;51.530;5.974;2022-09-09T08:32:37;8.93;;;2.20;;
57561;SDS011;43397;51.530;5.974;2022-09-09T08:35:03;8.95;;;2.08;;
57561;SDS011;43397;51.530;5.974;2022-09-09T08:37:29;6.97;;;2.10;;
57561;SDS011;43397;51.530;5.974;2022-09-09T08:39:56;8.88;;;1.98;;
57561;SDS011;43397;51.530;5.974;2022-09-09T08:42:27;7.25;;;2.47;;
57561;SDS011;43397;51.530;5.974;2022-09-09T08:45:03;4.95;;;2.28;;
57561;SDS011;43397;51.530;5.974;2022-09-09T08:50:19;5.13;;;2.10;;
57561;SDS011;43397;51.530;5.974;2022-09-09T08:52:51;7.70;;;2.40;;
57561;SDS011;43397;51.530;5.974;2022-09-09T08:55:22;6.10;;;1.80;;
57561;SDS011;43397;51.530;5.974;2022-09-09T08:57:54;12.45;;;2.95;;
57561;SDS011;43397;51.530;5.974;2022-09-09T09:00:23;5.10;;;1.73;;
57561;SDS011;43397;51.530;5.974;2022-09-09T09:03:01;10.15;;;2.33;;
57561;SDS011;43397;51.530;5.974;2022-09-09T09:05:32;6.25;;;3.25;;
57561;SDS011;43397;51.530;5.974;2022-09-09T09:08:04;7.00;;;2.00;;
57561;SDS011;43397;51.530;5.974;2022-09-09T09:10:41;7.15;;;1.83;;
57561;SDS011;43397;51.530;5.974;2022-09-09T09:13:12;7.15;;;1.77;;
57561;SDS011;43397;51.530;5.974;2022-09-09T09:15:41;7.95;;;1.95;;
57561;SDS011;43397;51.530;5.974;2022-09-09T09:18:10;5.78;;;1.75;;
57561;SDS011;43397;51.530;5.974;2022-09-09T09:20:39;6.18;;;2.03;;
57561;SDS011;43397;51.530;5.974;2022-09-09T09:23:13;4.38;;;1.58;;
57561;SDS011;43397;51.530;5.974;2022-09-09T09:25:44;6.00;;;1.65;;
57561;SDS011;43397;51.530;5.974;2022-09-09T09:28:12;5.28;;;1.73;;
57561;SDS011;43397;51.530;5.974;2022-09-09T09:30:44;6.53;;;1.92;;
57561;SDS011;43397;51.530;5.974;2022-09-09T09:33:16;7.53;;;2.63;;
57561;SDS011;43397;51.530;5.974;2022-09-09T09:35:45;8.13;;;1.83;;
57561;SDS011;43397;51.530;5.974;2022-09-09T09:38:15;6.97;;;1.95;;
57561;SDS011;43397;51.530;5.974;2022-09-09T09:40:48;4.20;;;1.75;;
57561;SDS011;43397;51.530;5.974;2022-09-09T09:43:17;10.27;;;2.10;;
57561;SDS011;43397;51.530;5.974;2022-09-09T09:45:48;5.88;;;1.50;;
57561;SDS011;43397;51.530;5.974;2022-09-09T09:48:14;10.13;;;1.88;;
57561;SDS011;43397;51.530;5.974;2022-09-09T09:50:46;6.65;;;1.80;;
57561;SDS011;43397;51.530;5.974;2022-09-09T09:53:17;9.05;;;2.08;;
57561;SDS011;43397;51.530;5.974;2022-09-09T09:55:47;7.13;;;1.90;;
57561;SDS011;43397;51.530;5.974;2022-09-09T09:58:18;6.72;;;1.85;;
57561;SDS011;43397;51.530;5.974;2022-09-09T10:00:48;7.28;;;2.00;;
57561;SDS011;43397;51.530;5.974;2022-09-09T10:03:19;9.25;;;1.90;;
57561;SDS011;43397;51.530;5.974;2022-09-09T10:05:47;6.45;;;1.70;;
57561;SDS011;43397;51.530;5.974;2022-09-09T10:08:14;7.95;;;1.83;;
57561;SDS011;43397;51.530;5.974;2022-09-09T10:10:48;6.45;;;1.40;;
57561;SDS011;43397;51.530;5.974;2022-09-09T10:13:39;5.78;;;1.90;;
57561;SDS011;43397;51.530;5.974;2022-09-09T10:16:18;8.55;;;2.10;;
57561;SDS011;43397;51.530;5.974;2022-09-09T10:18:56;6.18;;;1.70;;
57561;SDS011;43397;51.530;5.974;2022-09-09T10:21:34;6.38;;;1.85;;
57561;SDS011;43397;51.530;5.974;2022-09-09T10:27:14;5.10;;;1.90;;
57561;SDS011;43397;51.530;5.974;2022-09-09T10:29:49;8.85;;;1.73;;
57561;SDS011;43397;51.530;5.974;2022-09-09T10:32:33;7.38;;;1.90;;
57561;SDS011;43397;51.530;5.974;2022-09-09T10:35:04;6.25;;;1.85;;
57561;SDS011;43397;51.530;5.974;2022-09-09T10:37:40;6.82;;;1.52;;
57561;SDS011;43397;51.530;5.974;2022-09-09T10:43:00;5.18;;;1.40;;
57561;SDS011;43397;51.530;5.974;2022-09-09T10:45:39;10.30;;;2.03;;
57561;SDS011;43397;51.530;5.974;2022-09-09T10:48:18;6.63;;;1.80;;
57561;SDS011;43397;51.530;5.974;2022-09-09T10:50:58;6.90;;;1.67;;
57561;SDS011;43397;51.530;5.974;2022-09-09T10:56:05;6.80;;;1.70;;
57561;SDS011;43397;51.530;5.974;2022-09-09T10:58:35;5.00;;;1.52;;
57561;SDS011;43397;51.530;5.974;2022-09-09T11:01:07;5.18;;;1.60;;
57561;SDS011;43397;51.530;5.974;2022-09-09T11:03:38;4.30;;;1.23;;
57561;SDS011;43397;51.530;5.974;2022-09-09T11:06:06;7.10;;;1.55;;
57561;SDS011;43397;51.530;5.974;2022-09-09T11:08:38;10.43;;;1.80;;
57561;SDS011;43397;51.530;5.974;2022-09-09T11:11:06;10.30;;;2.03;;
57561;SDS011;43397;51.530;5.974;2022-09-09T11:13:38;6.20;;;1.70;;
57561;SDS011;43397;51.530;5.974;2022-09-09T11:16:12;9.27;;;1.77;;
57561;SDS011;43397;51.530;5.974;2022-09-09T11:18:47;5.32;;;1.67;;
57561;SDS011;43397;51.530;5.974;2022-09-09T11:21:15;6.38;;;1.63;;
57561;SDS011;43397;51.530;5.974;2022-09-09T11:23:48;6.82;;;1.48;;
57561;SDS011;43397;51.530;5.974;2022-09-09T11:26:21;4.53;;;1.52;;
57561;SDS011;43397;51.530;5.974;2022-09-09T11:28:56;9.10;;;2.15;;
57561;SDS011;43397;51.530;5.974;2022-09-09T11:31:43;6.72;;;1.73;;
57561;SDS011;43397;51.530;5.974;2022-09-09T11:34:21;5.82;;;1.73;;
57561;SDS011;43397;51.530;5.974;2022-09-09T11:37:04;8.85;;;2.28;;
57561;SDS011;43397;51.530;5.974;2022-09-09T11:42:39;6.50;;;2.30;;
57561;SDS011;43397;51.530;5.974;2022-09-09T11:45:09;6.63;;;2.22;;
57561;SDS011;43397;51.530;5.974;2022-09-09T11:47:37;6.00;;;2.70;;
57561;SDS011;43397;51.530;5.974;2022-09-09T11:50:22;8.73;;;2.75;;
57561;SDS011;43397;51.530;5.974;2022-09-09T11:53:03;5.50;;;2.40;;
57561;SDS011;43397;51.530;5.974;2022-09-09T11:55:48;6.38;;;3.17;;
57561;SDS011;43397;51.530;5.974;2022-09-09T11:58:26;5.95;;;2.25;;
57561;SDS011;43397;51.530;5.974;2022-09-09T12:00:55;6.37;;;3.10;;
57561;SDS011;43397;51.530;5.974;2022-09-09T12:03:38;7.88;;;2.60;;
57561;SDS011;43397;51.530;5.974;2022-09-09T12:06:13;6.88;;;2.50;;
57561;SDS011;43397;51.530;5.974;2022-09-09T12:08:43;6.72;;;2.65;;
57561;SDS011;43397;51.530;5.974;2022-09-09T12:11:11;7.35;;;2.58;;
57561;SDS011;43397;51.530;5.974;2022-09-09T12:13:52;8.10;;;3.03;;
57561;SDS011;43397;51.530;5.974;2022-09-09T12:16:27;8.13;;;2.67;;
57561;SDS011;43397;51.530;5.974;2022-09-09T12:19:02;6.32;;;2.50;;
57561;SDS011;43397;51.530;5.974;2022-09-09T12:21:32;7.18;;;2.67;;
57561;SDS011;43397;51.530;5.974;2022-09-09T12:24:02;5.75;;;2.83;;
57561;SDS011;43397;51.530;5.974;2022-09-09T12:26:34;5.82;;;2.72;;
57561;SDS011;43397;51.530;5.974;2022-09-09T12:29:09;7.43;;;2.63;;
57561;SDS011;43397;51.530;5.974;2022-09-09T12:31:43;5.80;;;2.10;;
57561;SDS011;43397;51.530;5.974;2022-09-09T12:34:14;5.20;;;2.70;;
57561;SDS011;43397;51.530;5.974;2022-09-09T12:36:45;10.60;;;3.08;;
57561;SDS011;43397;51.530;5.974;2022-09-09T12:39:19;6.28;;;2.70;;
57561;SDS011;43397;51.530;5.974;2022-09-09T12:41:57;8.10;;;3.53;;
57561;SDS011;43397;51.530;5.974;2022-09-09T12:44:23;5.78;;;2.95;;
57561;SDS011;43397;51.530;5.974;2022-09-09T12:46:49;10.43;;;2.97;;
57561;SDS011;43397;51.530;5.974;2022-09-09T12:49:23;8.70;;;3.83;;
57561;SDS011;43397;51.530;5.974;2022-09-09T12:51:55;7.35;;;2.72;;
57561;SDS011;43397;51.530;5.974;2022-09-09T12:54:21;7.35;;;2.95;;
57561;SDS011;43397;51.530;5.974;2022-09-09T12:56:47;6.60;;;3.13;;
57561;SDS011;43397;51.530;5.974;2022-09-09T12:59:20;7.43;;;2.95;;
57561;SDS011;43397;51.530;5.974;2022-09-09T13:01:54;5.35;;;2.50;;
57561;SDS011;43397;51.530;5.974;2022-09-09T13:04:21;6.78;;;3.05;;
57561;SDS011;43397;51.530;5.974;2022-09-09T13:06:47;8.27;;;3.28;;
57561;SDS011;43397;51.530;5.974;2022-09-09T13:09:14;7.32;;;2.60;;
57561;SDS011;43397;51.530;5.974;2022-09-09T13:11:41;10.30;;;3.00;;
57561;SDS011;43397;51.530;5.974;2022-09-09T13:14:12;8.82;;;3.22;;
57561;SDS011;43397;51.530;5.974;2022-09-09T13:16:53;7.47;;;2.70;;
57561;SDS011;43397;51.530;5.974;2022-09-09T13:19:21;8.13;;;3.05;;
57561;SDS011;43397;51.530;5.974;2022-09-09T13:21:47;8.55;;;2.58;;
57561;SDS011;43397;51.530;5.974;2022-09-09T13:24:28;5.82;;;2.40;;
57561;SDS011;43397;51.530;5.974;2022-09-09T13:26:57;6.85;;;2.20;;
57561;SDS011;43397;51.530;5.974;2022-09-09T13:29:24;6.30;;;2.30;;
57561;SDS011;43397;51.530;5.974;2022-09-09T13:31:50;5.97;;;1.88;;
57561;SDS011;43397;51.530;5.974;2022-09-09T13:34:26;5.25;;;1.90;;
57561;SDS011;43397;51.530;5.974;2022-09-09T13:36:53;5.85;;;2.08;;
57561;SDS011;43397;51.530;5.974;2022-09-09T13:39:23;6.43;;;2.33;;
57561;SDS011;43397;51.530;5.974;2022-09-09T13:41:50;6.53;;;2.40;;
57561;SDS011;43397;51.530;5.974;2022-09-09T13:44:17;6.20;;;1.83;;
57561;SDS011;43397;51.530;5.974;2022-09-09T13:46:46;6.22;;;2.22;;
57561;SDS011;43397;51.530;5.974;2022-09-09T13:49:19;5.53;;;2.08;;
57561;SDS011;43397;51.530;5.974;2022-09-09T13:51:48;7.38;;;2.15;;
57561;SDS011;43397;51.530;5.974;2022-09-09T13:54:15;4.90;;;1.60;;
57561;SDS011;43397;51.530;5.974;2022-09-09T13:56:42;6.65;;;1.90;;
57561;SDS011;43397;51.530;5.974;2022-09-09T13:59:11;7.70;;;2.22;;
57561;SDS011;43397;51.530;5.974;2022-09-09T14:04:04;6.78;;;2.05;;
57561;SDS011;43397;51.530;5.974;2022-09-09T14:06:30;7.20;;;1.77;;
57561;SDS011;43397;51.530;5.974;2022-09-09T14:08:56;6.43;;;1.67;;
57561;SDS011;43397;51.530;5.974;2022-09-09T14:11:21;4.60;;;1.60;;
57561;SDS011;43397;51.530;5.974;2022-09-09T14:13:47;6.22;;;1.80;;
57561;SDS011;43397;51.530;5.974;2022-09-09T14:16:15;6.28;;;1.60;;
57561;SDS011;43397;51.530;5.974;2022-09-09T14:18:41;6.47;;;1.70;;
57561;SDS011;43397;51.530;5.974;2022-09-09T14:21:06;5.78;;;2.25;;
57561;SDS011;43397;51.530;5.974;2022-09-09T14:23:32;7.10;;;1.95;;
57561;SDS011;43397;51.530;5.974;2022-09-09T14:25:58;5.68;;;2.08;;
57561;SDS011;43397;51.530;5.974;2022-09-09T14:28:24;4.93;;;1.83;;
57561;SDS011;43397;51.530;5.974;2022-09-09T14:30:49;6.28;;;2.13;;
57561;SDS011;43397;51.530;5.974;2022-09-09T14:33:17;4.90;;;1.70;;
57561;SDS011;43397;51.530;5.974;2022-09-09T14:35:43;7.70;;;2.00;;
57561;SDS011;43397;51.530;5.974;2022-09-09T14:38:08;6.50;;;1.77;;
57561;SDS011;43397;51.530;5.974;2022-09-09T14:40:35;5.18;;;1.83;;
57561;SDS011;43397;51.530;5.974;2022-09-09T14:43:02;6.75;;;1.95;;
57561;SDS011;43397;51.530;5.974;2022-09-09T14:45:28;6.07;;;2.25;;
57561;SDS011;43397;51.530;5.974;2022-09-09T14:47:54;3.53;;;1.35;;
57561;SDS011;43397;51.530;5.974;2022-09-09T14:50:21;4.97;;;1.38;;
57561;SDS011;43397;51.530;5.974;2022-09-09T14:52:48;3.53;;;1.35;;
57561;SDS011;43397;51.530;5.974;2022-09-09T14:55:14;6.85;;;1.50;;
57561;SDS011;43397;51.530;5.974;2022-09-09T14:57:40;3.95;;;1.40;;
57561;SDS011;43397;51.530;5.974;2022-09-09T15:00:06;4.18;;;1.23;;
57561;SDS011;43397;51.530;5.974;2022-09-09T15:02:34;5.13;;;1.35;;
57561;SDS011;43397;51.530;5.974;2022-09-09T15:05:00;4.10;;;1.30;;
57561;SDS011;43397;51.530;5.974;2022-09-09T15:07:27;4.32;;;1.67;;
57561;SDS011;43397;51.530;5.974;2022-09-09T15:09:53;5.93;;;1.70;;
57561;SDS011;43397;51.530;5.974;2022-09-09T15:12:19;3.88;;;1.90;;
57561;SDS011;43397;51.530;5.974;2022-09-09T15:14:45;5.57;;;1.80;;
57561;SDS011;43397;51.530;5.974;2022-09-09T15:17:11;4.43;;;1.88;;
57561;SDS011;43397;51.530;5.974;2022-09-09T15:19:37;6.55;;;1.90;;
57561;SDS011;43397;51.530;5.974;2022-09-09T15:22:03;6.72;;;1.83;;
57561;SDS011;43397;51.530;5.974;2022-09-09T15:24:30;6.07;;;1.80;;